createdAt,value
2023-01-16T00:01:24.783Z,93.28
2023-01-16T00:03:51.638Z,93.52
2023-01-16T00:06:18.629Z,92.70
2023-01-16T00:08:45.736Z,93.06
2023-01-16T00:11:12.310Z,92.12
2023-01-16T00:13:39.502Z,92.26
2023-01-16T00:16:07.178Z,92.07
2023-01-16T00:18:34.582Z,92.77
2023-01-16T00:21:02.021Z,93.05
2023-01-16T00:23:29.348Z,91.55
2023-01-16T00:25:55.907Z,91.12
2023-01-16T00:28:22.462Z,92.12
2023-01-16T00:30:49.017Z,92.71
2023-01-16T00:33:15.687Z,91.96
2023-01-16T00:35:42.276Z,93.22
2023-01-16T00:38:08.887Z,91.77
2023-01-16T00:40:35.436Z,92.04
2023-01-16T00:43:02.121Z,91.59
2023-01-16T00:45:28.720Z,90.69
2023-01-16T00:47:55.342Z,90.69
2023-01-16T00:50:22.107Z,91.06
2023-01-16T00:52:48.703Z,90.59
2023-01-16T00:55:15.380Z,90.65
2023-01-16T00:57:42.259Z,90.62
2023-01-16T01:00:09.535Z,90.53
2023-01-16T01:02:36.201Z,90.96
2023-01-16T01:05:02.783Z,91.37
2023-01-16T01:07:29.391Z,92.06
2023-01-16T01:09:56.023Z,92.18
2023-01-16T01:12:22.651Z,90.79
2023-01-16T01:14:49.288Z,90.98
2023-01-16T01:17:15.960Z,90.36
2023-01-16T01:19:42.535Z,90.64
2023-01-16T01:22:09.185Z,90.19
2023-01-16T01:24:35.963Z,91.06
2023-01-16T01:27:02.504Z,91.12
2023-01-16T01:29:29.192Z,90.94
2023-01-16T01:31:55.746Z,91.27
2023-01-16T01:34:22.354Z,91.98
2023-01-16T01:36:48.925Z,92.49
2023-01-16T01:39:15.483Z,91.36
2023-01-16T01:41:42.046Z,91.58
2023-01-16T01:44:48.203Z,91.29
2023-01-16T01:47:17.730Z,91.67
2023-01-16T01:49:44.572Z,91.19
2023-01-16T01:52:11.915Z,92.09
2023-01-16T01:54:46.668Z,92.79
2023-01-16T01:57:26.124Z,95.12
2023-01-16T02:00:01.923Z,96.15
2023-01-16T02:02:43.609Z,96.02
2023-01-16T02:05:13.688Z,96.18
2023-01-16T02:07:40.366Z,96.62
2023-01-16T02:10:19.440Z,97.16
2023-01-16T02:12:45.990Z,97.30
2023-01-16T02:15:12.659Z,97.02
2023-01-16T02:18:03.823Z,97.66
2023-01-16T02:20:34.114Z,97.82
2023-01-16T02:23:36.273Z,98.12
2023-01-16T02:26:20.837Z,98.67
2023-01-16T02:29:21.241Z,99.01
2023-01-16T02:32:22.797Z,100.00
2023-01-16T02:35:06.917Z,100.00
2023-01-16T02:37:50.554Z,100.00
2023-01-16T02:40:26.081Z,100.00
2023-01-16T02:43:16.110Z,100.00
2023-01-16T02:46:04.451Z,100.00
2023-01-16T02:48:42.207Z,100.00
2023-01-16T02:51:20.682Z,100.00
2023-01-16T02:53:59.408Z,99.51
2023-01-16T02:56:42.829Z,100.00
2023-01-16T02:59:15.013Z,100.00
2023-01-16T03:01:42.018Z,100.00
2023-01-16T03:04:41.430Z,100.00
2023-01-16T03:07:30.495Z,99.63
2023-01-16T03:10:21.902Z,100.00
2023-01-16T03:13:09.267Z,100.00
2023-01-16T03:15:53.118Z,100.00
2023-01-16T03:18:34.793Z,100.00
2023-01-16T03:21:05.637Z,100.00
2023-01-16T03:23:55.043Z,100.00
2023-01-16T03:26:36.614Z,99.70
2023-01-16T03:29:15.422Z,100.00
2023-01-16T03:31:58.181Z,100.00
2023-01-16T03:34:40.244Z,99.66
2023-01-16T03:37:12.442Z,99.02
2023-01-16T03:39:44.903Z,99.57
2023-01-16T03:42:19.520Z,99.05
2023-01-16T03:44:52.678Z,99.59
2023-01-16T03:47:28.546Z,99.00
2023-01-16T03:50:02.028Z,98.48
2023-01-16T03:52:38.545Z,100.00
2023-01-16T03:55:16.308Z,99.66
2023-01-16T03:57:50.756Z,99.74
2023-01-16T04:00:19.194Z,100.00
2023-01-16T04:02:59.095Z,100.00
2023-01-16T04:05:35.861Z,100.00
2023-01-16T04:08:10.495Z,100.00
2023-01-16T04:10:40.799Z,100.00
2023-01-16T04:13:15.331Z,100.00
2023-01-16T04:15:50.557Z,100.00
2023-01-16T04:18:19.310Z,100.00
2023-01-16T04:20:50.240Z,100.00
2023-01-16T04:23:17.509Z,100.00
2023-01-16T04:25:46.405Z,100.00
2023-01-16T04:28:13.013Z,100.00
2023-01-16T04:30:39.762Z,100.00
2023-01-16T04:33:06.702Z,100.00
2023-01-16T04:35:33.957Z,100.00
2023-01-16T04:38:00.761Z,100.00
2023-01-16T04:40:27.500Z,100.00
2023-01-16T04:42:55.883Z,100.00
2023-01-16T04:45:23.245Z,100.00
2023-01-16T04:47:51.852Z,100.00
2023-01-16T04:50:19.420Z,98.28
2023-01-16T04:52:47.161Z,98.93
2023-01-16T04:55:14.363Z,98.70
2023-01-16T04:57:41.423Z,97.89
2023-01-16T05:00:10.569Z,99.11
2023-01-16T05:02:37.318Z,97.68
2023-01-16T05:05:04.180Z,97.58
2023-01-16T05:07:30.808Z,98.01
2023-01-16T05:09:57.358Z,97.50
2023-01-16T05:12:24.027Z,97.50
2023-01-16T05:14:50.744Z,96.15
2023-01-16T05:17:17.345Z,95.49
2023-01-16T05:19:43.940Z,96.17
2023-01-16T05:22:10.512Z,95.89
2023-01-16T05:24:37.286Z,95.52
2023-01-16T05:27:03.874Z,94.72
2023-01-16T05:29:30.423Z,95.15
2023-01-16T05:31:57.112Z,94.96
2023-01-16T05:34:23.664Z,94.01
2023-01-16T05:36:50.250Z,93.89
2023-01-16T05:39:16.821Z,93.27
2023-01-16T05:41:43.399Z,94.20
2023-01-16T05:44:10.074Z,93.68
2023-01-16T05:46:36.685Z,92.91
2023-01-16T05:49:03.332Z,92.91
2023-01-16T05:51:29.901Z,93.21
2023-01-16T05:53:56.507Z,92.69
2023-01-16T05:56:23.806Z,92.46
2023-01-16T05:58:50.388Z,92.05
2023-01-16T06:01:17.084Z,92.56
2023-01-16T06:03:43.725Z,92.53
2023-01-16T06:06:10.382Z,91.14
2023-01-16T06:08:37.044Z,91.63
2023-01-16T06:11:03.690Z,91.34
2023-01-16T06:13:30.369Z,91.20
2023-01-16T06:15:56.983Z,90.73
2023-01-16T06:18:23.580Z,90.41
2023-01-16T06:20:50.211Z,90.50
2023-01-16T06:23:16.778Z,90.83
2023-01-16T06:25:43.429Z,90.29
2023-01-16T06:28:10.172Z,91.32
2023-01-16T06:30:36.709Z,91.31
2023-01-16T06:33:03.364Z,90.39
2023-01-16T06:35:29.931Z,89.37
2023-01-16T06:37:56.557Z,89.82
2023-01-16T06:40:23.135Z,89.33
2023-01-16T06:42:49.702Z,88.95
2023-01-16T06:45:16.289Z,88.65
2023-01-16T06:47:42.902Z,88.62
2023-01-16T06:50:10.252Z,89.89
2023-01-16T06:52:36.900Z,88.14
2023-01-16T06:55:03.637Z,88.72
2023-01-16T06:57:30.195Z,88.42
2023-01-16T06:59:56.806Z,88.74
2023-01-16T07:02:23.429Z,87.26
2023-01-16T07:04:50.097Z,87.59
2023-01-16T07:07:16.965Z,86.63
2023-01-16T07:09:43.561Z,86.61
2023-01-16T07:12:10.152Z,87.21
2023-01-16T07:14:55.453Z,86.86
2023-01-16T07:17:40.788Z,87.63
2023-01-16T07:20:30.703Z,88.02
2023-01-16T07:22:57.633Z,87.00
2023-01-16T07:25:35.956Z,88.04
2023-01-16T07:28:02.822Z,88.40
2023-01-16T07:30:29.674Z,88.55
2023-01-16T07:32:56.344Z,88.35
2023-01-16T07:35:22.914Z,87.97
2023-01-16T07:37:49.543Z,86.97
2023-01-16T07:40:16.177Z,87.83
2023-01-16T07:42:42.719Z,87.25
2023-01-16T07:45:10.980Z,87.75
2023-01-16T07:47:37.630Z,87.81
2023-01-16T07:50:04.578Z,88.39
2023-01-16T07:52:31.138Z,89.90
2023-01-16T07:54:57.705Z,91.64
2023-01-16T07:57:26.187Z,94.00
2023-01-16T07:59:52.797Z,95.17
2023-01-16T08:02:19.667Z,96.07
2023-01-16T08:04:46.275Z,97.50
2023-01-16T08:07:12.866Z,97.79
2023-01-16T08:09:39.432Z,97.73
2023-01-16T08:12:06.192Z,97.94
2023-01-16T08:14:32.798Z,97.70
2023-01-16T08:16:59.380Z,97.07
2023-01-16T08:19:26.227Z,98.09
2023-01-16T08:21:52.767Z,97.59
2023-01-16T08:24:19.832Z,97.33
2023-01-16T08:26:46.480Z,98.71
2023-01-16T08:29:13.073Z,98.28
2023-01-16T08:31:39.828Z,97.90
2023-01-16T08:34:06.488Z,96.90
2023-01-16T08:36:33.496Z,97.67
2023-01-16T08:39:00.808Z,97.72
2023-01-16T08:41:45.889Z,97.84
2023-01-16T08:44:31.015Z,97.98
2023-01-16T08:47:22.213Z,97.67
2023-01-16T08:50:08.518Z,97.65
2023-01-16T08:52:37.702Z,98.08
2023-01-16T08:55:05.020Z,97.83
2023-01-16T08:57:31.636Z,97.65
2023-01-16T08:59:58.609Z,97.76
2023-01-16T09:02:27.136Z,97.45
2023-01-16T09:04:55.882Z,97.18
2023-01-16T09:07:23.159Z,97.33
2023-01-16T09:09:49.752Z,97.53
2023-01-16T09:12:34.724Z,97.38
2023-01-16T09:15:01.408Z,97.03
2023-01-16T09:17:28.254Z,97.39
2023-01-16T09:19:55.109Z,97.18
2023-01-16T09:22:22.068Z,97.06
2023-01-16T09:24:48.713Z,96.23
2023-01-16T09:27:16.104Z,96.54
2023-01-16T09:29:42.742Z,97.01
2023-01-16T09:32:10.185Z,97.57
2023-01-16T09:34:38.393Z,97.27
2023-01-16T09:37:06.655Z,97.31
2023-01-16T09:39:33.931Z,96.68
2023-01-16T09:42:51.577Z,97.27
2023-01-16T09:45:23.826Z,97.36
2023-01-16T09:47:55.621Z,96.54
2023-01-16T09:50:44.131Z,96.47
2023-01-16T09:53:38.289Z,96.85
2023-01-16T09:56:24.041Z,96.73
2023-01-16T09:59:30.345Z,96.93
2023-01-16T10:02:04.108Z,96.63
2023-01-16T10:04:30.971Z,96.87
2023-01-16T10:07:24.999Z,96.95
2023-01-16T10:10:00.602Z,97.42
2023-01-16T10:12:33.439Z,98.00
2023-01-16T10:15:12.800Z,97.17
2023-01-16T10:17:54.560Z,96.70
2023-01-16T10:20:38.383Z,97.34
2023-01-16T10:23:30.737Z,98.50
2023-01-16T10:26:07.421Z,97.51
2023-01-16T10:28:53.001Z,98.21
2023-01-16T10:31:24.476Z,97.88
2023-01-16T10:34:02.382Z,99.01
2023-01-16T10:36:34.103Z,97.81
2023-01-16T10:39:01.761Z,99.16
2023-01-16T10:41:57.636Z,98.04
2023-01-16T10:44:47.826Z,97.80
2023-01-16T10:47:34.596Z,97.66
2023-01-16T10:50:01.973Z,98.42
2023-01-16T10:52:28.942Z,97.90
2023-01-16T10:54:59.262Z,96.62
2023-01-16T10:57:26.115Z,96.12
2023-01-16T10:59:57.920Z,94.04
2023-01-16T11:02:31.704Z,95.16
2023-01-16T11:04:58.303Z,95.13
2023-01-16T11:07:29.180Z,95.60
2023-01-16T11:09:55.998Z,96.76
2023-01-16T11:12:42.954Z,97.55
2023-01-16T11:15:39.482Z,98.53
2023-01-16T11:18:29.863Z,98.50
2023-01-16T11:21:16.808Z,98.63
2023-01-16T11:23:48.163Z,99.67
2023-01-16T11:26:16.312Z,99.38
2023-01-16T11:28:48.622Z,98.27
2023-01-16T11:31:19.426Z,98.18
2023-01-16T11:33:50.219Z,97.58
2023-01-16T11:36:19.312Z,96.41
2023-01-16T11:38:48.601Z,95.24
2023-01-16T11:41:23.469Z,95.47
2023-01-16T11:44:29.885Z,96.18
2023-01-16T11:46:59.264Z,95.32
2023-01-16T11:49:37.313Z,94.87
2023-01-16T11:52:04.708Z,95.09
2023-01-16T11:54:34.677Z,96.59
2023-01-16T11:57:28.561Z,96.55
2023-01-16T12:00:03.880Z,95.06
2023-01-16T12:03:16.255Z,93.53
2023-01-16T12:06:20.856Z,92.79
2023-01-16T12:09:25.309Z,90.67
2023-01-16T12:12:29.997Z,91.65
2023-01-16T12:15:32.160Z,92.86
2023-01-16T12:18:21.602Z,91.15
2023-01-16T12:21:00.269Z,93.04
2023-01-16T12:23:50.161Z,93.89
2023-01-16T12:26:37.284Z,94.23
2023-01-16T12:29:03.898Z,93.62
2023-01-16T12:31:54.894Z,94.62
2023-01-16T12:34:47.162Z,93.23
2023-01-16T12:37:32.109Z,93.09
2023-01-16T12:40:22.206Z,93.18
2023-01-16T12:43:19.355Z,93.96
2023-01-16T12:46:02.705Z,93.27
2023-01-16T12:48:38.420Z,94.17
2023-01-16T12:51:37.028Z,93.91
2023-01-16T12:54:29.748Z,94.13
2023-01-16T12:57:10.010Z,96.09
2023-01-16T12:59:46.951Z,96.27
2023-01-16T13:02:13.487Z,96.43
2023-01-16T13:04:44.916Z,97.61
2023-01-16T13:07:17.989Z,96.89
2023-01-16T13:10:14.985Z,97.26
2023-01-16T13:13:01.469Z,97.55
2023-01-16T13:15:33.790Z,97.86
2023-01-16T13:18:11.682Z,98.23
2023-01-16T13:20:39.785Z,97.83
2023-01-16T13:23:15.745Z,97.51
2023-01-16T13:25:45.881Z,97.42
2023-01-16T13:28:38.743Z,97.44
2023-01-16T13:31:21.235Z,97.76
2023-01-16T13:33:51.417Z,97.31
2023-01-16T13:36:33.016Z,96.68
2023-01-16T13:39:12.808Z,96.99
2023-01-16T13:41:47.205Z,95.57
2023-01-16T13:44:36.964Z,95.88
2023-01-16T13:47:12.186Z,95.03
2023-01-16T13:49:40.314Z,96.34
2023-01-16T13:52:20.219Z,95.74
2023-01-16T13:54:49.299Z,95.58
2023-01-16T13:57:22.203Z,97.06
2023-01-16T13:59:58.139Z,95.66
2023-01-16T14:02:43.931Z,96.33
2023-01-16T14:05:35.112Z,97.78
2023-01-16T14:08:20.204Z,97.53
2023-01-16T14:10:59.010Z,97.14
2023-01-16T14:13:34.160Z,98.31
2023-01-16T14:16:31.823Z,98.30
2023-01-16T14:19:10.914Z,97.28
2023-01-16T14:21:37.777Z,97.69
2023-01-16T14:24:10.573Z,97.83
2023-01-16T14:26:46.473Z,97.40
2023-01-16T14:29:23.335Z,96.97
2023-01-16T14:31:57.349Z,97.33
2023-01-16T14:34:28.308Z,97.53
2023-01-16T14:37:00.651Z,97.83
2023-01-16T14:39:34.923Z,96.85
2023-01-16T14:42:34.005Z,98.24
2023-01-16T14:45:32.872Z,97.70
2023-01-16T14:48:27.369Z,99.35
2023-01-16T14:51:24.696Z,98.78
2023-01-16T14:54:28.353Z,97.85
2023-01-16T14:57:01.406Z,98.54
2023-01-16T14:59:42.282Z,99.24
2023-01-16T15:02:31.548Z,100.00
2023-01-16T15:05:13.919Z,100.00
2023-01-16T15:07:54.478Z,99.96
2023-01-16T15:10:29.035Z,100.00
2023-01-16T15:13:50.989Z,100.00
2023-01-16T15:16:40.103Z,100.00
2023-01-16T15:19:40.370Z,100.00
2023-01-16T15:22:19.066Z,100.00
2023-01-16T15:24:58.875Z,100.00
2023-01-16T15:27:33.124Z,100.00
2023-01-16T15:30:09.620Z,100.00
2023-01-16T15:32:55.981Z,100.00
2023-01-16T15:35:26.093Z,100.00
2023-01-16T15:37:55.187Z,100.00
2023-01-16T15:40:30.531Z,100.00
2023-01-16T15:43:16.873Z,100.00
2023-01-16T15:46:15.366Z,100.00
2023-01-16T15:49:25.386Z,100.00
2023-01-16T15:51:56.973Z,100.00
2023-01-16T15:54:23.817Z,100.00
2023-01-16T15:56:55.527Z,100.00
2023-01-16T15:59:27.384Z,100.00
2023-01-16T16:01:54.075Z,100.00
2023-01-16T16:04:23.774Z,100.00
2023-01-16T16:06:50.628Z,100.00
2023-01-16T16:09:23.508Z,100.00
2023-01-16T16:11:53.676Z,100.00
2023-01-16T16:14:49.618Z,100.00
2023-01-16T16:17:49.584Z,100.00
2023-01-16T16:20:40.110Z,100.00
2023-01-16T16:23:26.500Z,100.00
2023-01-16T16:25:57.961Z,100.00
2023-01-16T16:28:31.586Z,100.00
2023-01-16T16:31:02.950Z,100.00
2023-01-16T16:33:34.340Z,100.00
2023-01-16T16:36:01.431Z,100.00
2023-01-16T16:38:40.933Z,99.68
2023-01-16T16:41:10.337Z,99.87
2023-01-16T16:43:52.450Z,100.00
2023-01-16T16:46:28.918Z,99.60
2023-01-16T16:48:58.787Z,100.00
2023-01-16T16:51:32.278Z,100.00
2023-01-16T16:54:07.324Z,100.00
2023-01-16T16:56:37.655Z,100.00
2023-01-16T16:59:09.508Z,100.00
2023-01-16T17:01:37.581Z,100.00
2023-01-16T17:04:07.044Z,100.00
2023-01-16T17:06:35.651Z,100.00
2023-01-16T17:09:03.724Z,100.00
2023-01-16T17:11:30.341Z,100.00
2023-01-16T17:13:57.260Z,100.00
2023-01-16T17:16:28.412Z,100.00
2023-01-16T17:19:16.187Z,100.00
2023-01-16T17:21:43.069Z,100.00
2023-01-16T17:24:16.503Z,100.00
2023-01-16T17:26:43.554Z,100.00
2023-01-16T17:29:10.549Z,100.00
2023-01-16T17:31:41.835Z,100.00
2023-01-16T17:34:20.610Z,100.00
2023-01-16T17:36:52.890Z,100.00
2023-01-16T17:39:19.996Z,100.00
2023-01-16T17:41:46.792Z,100.00
2023-01-16T17:44:40.901Z,100.00
2023-01-16T17:47:08.824Z,99.98
2023-01-16T17:49:58.096Z,100.00
2023-01-16T17:52:25.774Z,99.57
2023-01-16T17:55:12.263Z,100.00
2023-01-16T17:57:38.985Z,100.00
2023-01-16T18:00:06.488Z,100.00
2023-01-16T18:02:33.455Z,100.00
2023-01-16T18:05:00.579Z,100.00
2023-01-16T18:07:29.061Z,100.00
2023-01-16T18:09:55.663Z,100.00
2023-01-16T18:12:41.123Z,100.00
2023-01-16T18:15:26.704Z,100.00
2023-01-16T18:17:53.791Z,100.00
2023-01-16T18:20:20.695Z,100.00
2023-01-16T18:22:48.147Z,100.00
2023-01-16T18:25:15.003Z,100.00
2023-01-16T18:27:43.139Z,100.00
2023-01-16T18:30:10.654Z,100.00
2023-01-16T18:32:38.680Z,100.00
2023-01-16T18:35:08.126Z,100.00
2023-01-16T18:38:04.703Z,100.00
2023-01-16T18:40:49.919Z,99.35
2023-01-16T18:43:35.712Z,99.18
2023-01-16T18:46:20.799Z,99.48
2023-01-16T18:49:06.216Z,100.00
2023-01-16T18:51:51.657Z,99.78
2023-01-16T18:54:39.924Z,97.85
2023-01-16T18:57:34.772Z,98.95
2023-01-16T19:00:20.579Z,100.00
2023-01-16T19:02:54.579Z,99.54
2023-01-16T19:05:21.960Z,100.00
2023-01-16T19:07:54.176Z,99.74
2023-01-16T19:10:39.088Z,98.46
2023-01-16T19:13:09.483Z,98.98
2023-01-16T19:15:56.610Z,98.74
2023-01-16T19:18:23.977Z,98.41
2023-01-16T19:20:50.561Z,99.80
2023-01-16T19:23:17.903Z,98.97
2023-01-16T19:25:44.963Z,98.73
2023-01-16T19:28:12.554Z,98.42
2023-01-16T19:30:39.172Z,98.36
2023-01-16T19:33:06.619Z,98.57
2023-01-16T19:35:33.751Z,98.32
2023-01-16T19:38:01.111Z,97.13
2023-01-16T19:40:27.665Z,97.98
2023-01-16T19:43:13.450Z,97.95
2023-01-16T19:45:59.057Z,98.21
2023-01-16T19:48:26.104Z,96.25
2023-01-16T19:50:53.012Z,97.29
2023-01-16T19:53:19.907Z,97.96
2023-01-16T19:55:46.765Z,98.35
2023-01-16T19:58:14.592Z,98.41
2023-01-16T20:00:57.196Z,98.09
2023-01-16T20:03:28.345Z,97.67
2023-01-16T20:05:56.405Z,97.93
2023-01-16T20:08:23.000Z,98.29
2023-01-16T20:10:51.396Z,99.01
2023-01-16T20:13:18.019Z,98.25
2023-01-16T20:15:44.813Z,98.11
2023-01-16T20:18:11.707Z,97.97
2023-01-16T20:20:38.642Z,97.88
2023-01-16T20:23:05.866Z,98.99
2023-01-16T20:25:32.409Z,99.14
2023-01-16T20:28:01.540Z,98.25
2023-01-16T20:30:48.289Z,98.42
2023-01-16T20:33:16.852Z,98.07
2023-01-16T20:35:43.707Z,98.78
2023-01-16T20:38:10.673Z,98.63
2023-01-16T20:40:37.253Z,98.33
2023-01-16T20:43:22.849Z,97.79
2023-01-16T20:45:52.311Z,96.91
2023-01-16T20:48:20.702Z,97.18
2023-01-16T20:50:47.833Z,97.17
2023-01-16T20:53:14.776Z,96.91
2023-01-16T20:55:41.427Z,97.40
2023-01-16T20:58:10.153Z,97.29
2023-01-16T21:00:37.587Z,96.93
2023-01-16T21:03:05.407Z,98.13
2023-01-16T21:05:35.067Z,98.64
2023-01-16T21:08:03.489Z,98.41
2023-01-16T21:10:30.449Z,99.44
2023-01-16T21:13:16.147Z,99.44
2023-01-16T21:15:43.175Z,98.55
2023-01-16T21:18:29.353Z,97.93
2023-01-16T21:21:19.480Z,98.65
2023-01-16T21:23:46.494Z,98.51
2023-01-16T21:26:13.751Z,98.81
2023-01-16T21:28:40.391Z,97.80
2023-01-16T21:31:09.398Z,96.33
2023-01-16T21:33:37.969Z,96.29
2023-01-16T21:36:13.749Z,96.13
2023-01-16T21:38:40.865Z,95.57
2023-01-16T21:41:16.032Z,95.96
2023-01-16T21:44:01.917Z,96.44
2023-01-16T21:46:31.978Z,97.19
2023-01-16T21:48:59.899Z,98.18
2023-01-16T21:51:28.091Z,98.05
2023-01-16T21:53:55.553Z,97.51
2023-01-16T21:56:22.678Z,97.14
2023-01-16T21:58:49.253Z,97.86
2023-01-16T22:01:16.011Z,95.81
2023-01-16T22:03:42.666Z,96.38
2023-01-16T22:06:10.045Z,95.37
2023-01-16T22:08:41.026Z,96.00
2023-01-16T22:11:28.493Z,95.62
2023-01-16T22:14:13.735Z,95.55
2023-01-16T22:16:58.865Z,94.34
2023-01-16T22:19:29.551Z,94.47
2023-01-16T22:21:56.737Z,94.53
2023-01-16T22:24:24.980Z,95.04
2023-01-16T22:26:52.121Z,94.62
2023-01-16T22:29:18.929Z,93.85
2023-01-16T22:31:49.907Z,94.56
2023-01-16T22:34:17.510Z,94.04
2023-01-16T22:36:44.841Z,93.43
2023-01-16T22:39:14.619Z,94.41
2023-01-16T22:41:41.215Z,93.95
2023-01-16T22:44:28.756Z,93.12
2023-01-16T22:46:55.646Z,92.97
2023-01-16T22:49:22.275Z,92.66
2023-01-16T22:51:48.842Z,92.10
2023-01-16T22:54:15.484Z,92.36
2023-01-16T22:56:44.793Z,93.39
2023-01-16T22:59:11.512Z,93.25
2023-01-16T23:01:38.104Z,92.68
2023-01-16T23:04:04.941Z,91.57
2023-01-16T23:06:31.833Z,90.87
2023-01-16T23:08:58.708Z,90.93
2023-01-16T23:11:37.495Z,90.48
2023-01-16T23:14:06.581Z,91.59
2023-01-16T23:16:37.288Z,90.88
2023-01-16T23:19:06.325Z,90.96
2023-01-16T23:21:34.427Z,91.16
2023-01-16T23:24:02.423Z,90.12
2023-01-16T23:26:29.665Z,89.81
2023-01-16T23:28:58.064Z,89.25
2023-01-16T23:31:27.466Z,88.89
2023-01-16T23:33:54.202Z,88.43
2023-01-16T23:36:23.678Z,88.77
2023-01-16T23:38:50.669Z,88.90
2023-01-16T23:41:19.460Z,88.28
2023-01-16T23:44:04.987Z,87.30
2023-01-16T23:46:39.280Z,87.24
2023-01-16T23:49:08.339Z,87.45
2023-01-16T23:51:37.463Z,86.91
2023-01-16T23:54:04.502Z,86.84
2023-01-16T23:56:31.130Z,85.44
2023-01-16T23:59:00.141Z,86.56
